Time;durP1;ratioP1;P1;durP2;ratioP2;P2;SDS_P1;SDS_P2;PMS_P1;PMS_P2;Temp;Humidity;BMP_temperature;BMP_pressure;BME280_temperature;BME280_humidity;BME280_pressure;Samples;Min_cycle;Max_cycle;Signal;HPM_P1;HPM_P2
2023/12/24 00:01:58;;;;;;;7.28;1.60;;;10.60;99.90;;;;;;5026710;28;20017;-72
2023/12/24 00:04:23;;;;;;;7.88;2.15;;;10.60;99.90;;;;;;5046446;28;20025;-72
2023/12/24 00:06:49;;;;;;;8.82;1.73;;;10.60;99.90;;;;;;5045937;28;20052;-72
2023/12/24 00:09:15;;;;;;;10.07;2.35;;;10.60;99.90;;;;;;5045917;28;20479;-72
2023/12/24 00:11:40;;;;;;;9.75;2.13;;;10.60;99.90;;;;;;5044462;28;20112;-73
2023/12/24 00:14:06;;;;;;;8.73;2.30;;;10.60;99.90;;;;;;5046314;28;20025;-72
2023/12/24 00:16:32;;;;;;;7.00;1.73;;;10.70;99.90;;;;;;5045835;28;20524;-72
2023/12/24 00:18:57;;;;;;;15.02;2.40;;;10.70;99.90;;;;;;5046187;28;20473;-72
2023/12/24 00:21:24;;;;;;;11.73;3.22;;;10.70;99.90;;;;;;5027764;28;20078;-72
2023/12/24 00:23:50;;;;;;;9.63;1.95;;;10.70;99.90;;;;;;5046071;28;20041;-72
2023/12/24 00:26:16;;;;;;;11.18;2.05;;;10.70;99.90;;;;;;5045773;28;20121;-72
2023/12/24 00:28:42;;;;;;;11.98;2.22;;;10.70;99.90;;;;;;5048493;28;20053;-71
2023/12/24 00:31:08;;;;;;;10.80;1.92;;;10.70;99.90;;;;;;5048862;28;20487;-73
2023/12/24 00:33:33;;;;;;;6.78;1.88;;;10.70;99.90;;;;;;5049898;28;20108;-72
2023/12/24 00:35:59;;;;;;;10.73;2.20;;;10.70;99.90;;;;;;5049142;28;20150;-72
2023/12/24 00:38:25;;;;;;;7.97;1.90;;;10.80;99.90;;;;;;5049315;28;20112;-71
2023/12/24 00:40:50;;;;;;;8.82;1.83;;;10.80;99.90;;;;;;5047469;28;20049;-71
2023/12/24 00:43:16;;;;;;;7.72;1.50;;;10.80;99.90;;;;;;5049370;28;20112;-71
2023/12/24 00:45:43;;;;;;;11.98;2.17;;;10.70;99.90;;;;;;5048760;28;20031;-71
2023/12/24 00:48:09;;;;;;;9.52;1.73;;;10.80;99.90;;;;;;5049104;28;20112;-71
2023/12/24 00:50:35;;;;;;;6.55;1.58;;;10.80;99.90;;;;;;5048792;28;20029;-70
2023/12/24 00:53:00;;;;;;;6.53;1.60;;;10.80;99.90;;;;;;5048941;28;20019;-72
2023/12/24 00:55:26;;;;;;;4.85;1.50;;;10.80;99.90;;;;;;5048876;28;20542;-72
2023/12/24 00:57:52;;;;;;;5.18;1.42;;;10.80;99.90;;;;;;5048755;28;20027;-71
2023/12/24 01:00:17;;;;;;;5.53;1.13;;;10.80;99.90;;;;;;5030913;28;20406;-72
2023/12/24 01:02:43;;;;;;;8.73;1.88;;;10.80;99.90;;;;;;5048488;28;20028;-71
2023/12/24 01:05:09;;;;;;;5.70;1.45;;;10.80;99.90;;;;;;5047508;28;20032;-71
2023/12/24 01:07:34;;;;;;;7.13;1.63;;;10.80;99.90;;;;;;5048454;28;20021;-71
2023/12/24 01:10:00;;;;;;;7.78;2.10;;;10.80;99.90;;;;;;5048641;28;20020;-71
2023/12/24 01:12:26;;;;;;;5.15;1.60;;;10.80;99.90;;;;;;5048280;28;20024;-71
2023/12/24 01:14:52;;;;;;;6.88;1.77;;;10.80;99.90;;;;;;5048495;28;20041;-72
2023/12/24 01:17:17;;;;;;;6.00;1.40;;;10.80;99.90;;;;;;5048612;28;20626;-72
2023/12/24 01:19:43;;;;;;;8.55;2.35;;;10.80;99.90;;;;;;5048551;28;20502;-72
2023/12/24 01:22:09;;;;;;;8.48;1.50;;;10.80;99.90;;;;;;5048071;28;20044;-72
2023/12/24 01:24:35;;;;;;;5.40;1.48;;;10.80;99.90;;;;;;5048488;28;20060;-72
2023/12/24 01:27:00;;;;;;;7.18;1.60;;;10.80;99.90;;;;;;5047800;28;20017;-72
2023/12/24 01:29:26;;;;;;;9.70;1.90;;;10.80;99.90;;;;;;5047104;28;20037;-71
2023/12/24 01:31:52;;;;;;;6.93;1.60;;;10.70;99.90;;;;;;5047712;28;20013;-71
2023/12/24 01:34:18;;;;;;;5.10;1.70;;;10.80;99.90;;;;;;5048315;28;20025;-72
2023/12/24 01:36:43;;;;;;;6.72;2.03;;;10.80;99.90;;;;;;5047896;28;20021;-72
2023/12/24 01:39:10;;;;;;;6.60;1.55;;;10.80;99.90;;;;;;5046962;28;20501;-71
2023/12/24 01:41:35;;;;;;;8.15;1.90;;;10.70;99.90;;;;;;5047701;28;20059;-71
2023/12/24 01:44:01;;;;;;;10.05;2.17;;;10.70;99.90;;;;;;5048057;28;20013;-72
2023/12/24 01:46:28;;;;;;;8.30;2.22;;;10.70;99.90;;;;;;5048084;28;20021;-72
2023/12/24 01:48:54;;;;;;;11.27;3.08;;;10.70;99.90;;;;;;5048072;28;20029;-72
2023/12/24 01:51:21;;;;;;;7.45;2.00;;;10.60;99.90;;;;;;5047494;28;20112;-73
2023/12/24 01:53:50;;;;;;;4.38;1.70;;;10.60;99.90;;;;;;5046530;28;20028;-71
2023/12/24 01:56:17;;;;;;;8.85;3.22;;;10.50;99.90;;;;;;5047584;28;20060;-71
2023/12/24 01:58:42;;;;;;;8.23;2.35;;;10.50;99.90;;;;;;5046508;28;20029;-71
2023/12/24 02:01:09;;;;;;;9.70;2.30;;;10.40;99.90;;;;;;5047158;28;20032;-71
2023/12/24 02:03:35;;;;;;;10.60;2.85;;;10.40;99.90;;;;;;5047636;28;20123;-71
2023/12/24 02:06:03;;;;;;;9.75;2.63;;;10.30;99.90;;;;;;5047468;28;20112;-71
2023/12/24 02:08:28;;;;;;;11.50;2.33;;;10.20;99.90;;;;;;5047808;28;20024;-71
2023/12/24 02:10:54;;;;;;;11.32;3.40;;;10.20;99.90;;;;;;5047191;28;20376;-71
2023/12/24 02:13:20;;;;;;;11.45;3.00;;;10.20;99.90;;;;;;5029582;28;20121;-70
2023/12/24 02:15:50;;;;;;;13.30;3.33;;;10.20;99.90;;;;;;5047508;28;20021;-69
2023/12/24 02:18:17;;;;;;;9.07;3.53;;;10.10;99.90;;;;;;5047270;28;20292;-70
2023/12/24 02:20:42;;;;;;;9.60;3.55;;;10.10;99.90;;;;;;5047259;28;20471;-70
2023/12/24 02:23:08;;;;;;;16.15;4.05;;;10.00;99.90;;;;;;5047294;28;20036;-70
2023/12/24 02:25:34;;;;;;;14.20;4.00;;;10.00;99.90;;;;;;5047644;28;20048;-70
2023/12/24 02:28:16;;;;;;;9.00;4.30;;;9.90;99.90;;;;;;5046990;28;20063;-69
2023/12/24 02:30:47;;;;;;;11.73;4.65;;;10.00;99.90;;;;;;5046827;28;20059;-69
2023/12/24 02:33:15;;;;;;;14.45;5.07;;;9.90;99.90;;;;;;5046791;28;20742;-70
2023/12/24 02:35:42;;;;;;;13.27;5.30;;;9.90;99.90;;;;;;5047035;28;20100;-70
2023/12/24 02:38:08;;;;;;;12.27;4.63;;;9.90;99.90;;;;;;5047058;28;20025;-70
2023/12/24 02:40:34;;;;;;;15.65;5.90;;;9.90;99.90;;;;;;5047082;28;20401;-70
2023/12/24 02:42:59;;;;;;;17.75;4.78;;;9.90;99.90;;;;;;5046898;28;20044;-70
2023/12/24 02:45:25;;;;;;;17.95;4.75;;;9.90;99.90;;;;;;5047267;28;20486;-70
2023/12/24 02:47:50;;;;;;;13.05;4.75;;;9.90;99.90;;;;;;5046809;28;20078;-70
2023/12/24 02:50:18;;;;;;;13.98;4.70;;;9.90;99.90;;;;;;5046937;28;20024;-69
2023/12/24 02:52:44;;;;;;;18.55;5.30;;;9.90;99.90;;;;;;5045056;28;20478;-70
2023/12/24 02:55:10;;;;;;;21.35;5.72;;;9.90;99.90;;;;;;5046755;28;20044;-70
2023/12/24 02:57:36;;;;;;;15.52;6.65;;;10.00;99.90;;;;;;5046388;28;20028;-70
2023/12/24 03:00:04;;;;;;;17.50;6.03;;;10.00;99.90;;;;;;5046888;28;20052;-69
2023/12/24 03:02:30;;;;;;;17.17;6.47;;;10.00;99.90;;;;;;5044831;28;20016;-69
2023/12/24 03:04:56;;;;;;;16.95;6.65;;;10.00;99.90;;;;;;5046886;28;20024;-69
2023/12/24 03:07:22;;;;;;;19.30;6.53;;;10.00;99.90;;;;;;5046476;28;20103;-70
2023/12/24 03:09:51;;;;;;;23.17;7.18;;;10.00;99.90;;;;;;5014855;28;20977;-69
2023/12/24 03:12:17;;;;;;;19.23;5.95;;;10.00;99.90;;;;;;5046200;28;20025;-70
2023/12/24 03:14:43;;;;;;;18.30;6.05;;;10.00;99.90;;;;;;5045283;28;20512;-69
2023/12/24 03:17:08;;;;;;;18.33;5.95;;;10.10;99.90;;;;;;5046070;28;20021;-70
2023/12/24 03:19:34;;;;;;;18.77;6.15;;;10.10;99.90;;;;;;5046669;28;20502;-70
2023/12/24 03:22:00;;;;;;;13.35;5.15;;;10.10;99.90;;;;;;5046215;28;20029;-70
2023/12/24 03:24:25;;;;;;;16.40;5.70;;;10.10;99.90;;;;;;5046568;28;20525;-70
2023/12/24 03:26:51;;;;;;;12.32;4.88;;;10.10;99.90;;;;;;5046008;28;20121;-70
2023/12/24 03:29:17;;;;;;;14.25;4.90;;;10.10;99.90;;;;;;5046666;28;20025;-70
2023/12/24 03:31:42;;;;;;;11.90;4.63;;;10.10;99.90;;;;;;5046264;28;20462;-70
2023/12/24 03:34:09;;;;;;;11.07;5.78;;;10.10;99.90;;;;;;5046370;28;20032;-70
2023/12/24 03:36:34;;;;;;;11.65;5.22;;;10.10;99.90;;;;;;5044678;28;20014;-70
2023/12/24 03:39:00;;;;;;;12.50;4.95;;;10.10;99.90;;;;;;5046033;28;20076;-70
2023/12/24 03:41:26;;;;;;;14.30;4.82;;;10.10;99.90;;;;;;5046018;28;20028;-70
2023/12/24 03:43:52;;;;;;;10.80;4.80;;;10.10;99.90;;;;;;5046220;28;20553;-70
2023/12/24 03:46:21;;;;;;;10.93;5.15;;;10.10;99.90;;;;;;5046163;28;20025;-70
2023/12/24 03:48:46;;;;;;;13.45;4.65;;;10.20;99.90;;;;;;5046356;28;20025;-70
2023/12/24 03:51:12;;;;;;;9.15;4.35;;;10.20;99.90;;;;;;5045949;28;20161;-70
2023/12/24 03:53:38;;;;;;;7.78;3.40;;;10.20;99.90;;;;;;5046297;28;20532;-70
2023/12/24 03:56:05;;;;;;;9.65;3.40;;;10.20;99.90;;;;;;5045929;28;20028;-70
2023/12/24 03:58:31;;;;;;;8.68;3.45;;;10.20;99.90;;;;;;5028323;28;20367;-70
2023/12/24 04:00:56;;;;;;;8.38;3.45;;;10.20;99.90;;;;;;5046132;28;20158;-69
2023/12/24 04:03:22;;;;;;;8.88;3.53;;;10.20;99.90;;;;;;5036078;28;20060;-70
2023/12/24 04:05:48;;;;;;;9.48;3.00;;;10.20;99.90;;;;;;5050171;28;20387;-69
2023/12/24 04:08:17;;;;;;;6.78;2.92;;;10.30;99.90;;;;;;5048239;28;20025;-70
2023/12/24 04:10:43;;;;;;;7.68;3.05;;;10.30;99.90;;;;;;5049838;28;20052;-70
2023/12/24 04:13:08;;;;;;;4.70;2.47;;;10.30;99.90;;;;;;5049686;28;20060;-70
2023/12/24 04:15:34;;;;;;;5.57;2.50;;;10.30;99.90;;;;;;5049900;28;20108;-70
2023/12/24 04:18:01;;;;;;;5.05;2.20;;;10.30;99.90;;;;;;5049148;28;20025;-70
2023/12/24 04:20:26;;;;;;;6.00;2.40;;;10.30;99.90;;;;;;5049715;28;20025;-69
2023/12/24 04:22:52;;;;;;;7.93;2.40;;;10.30;99.90;;;;;;5049379;28;20077;-70
2023/12/24 04:25:18;;;;;;;4.03;2.47;;;10.30;99.90;;;;;;5035987;28;20021;-70
2023/12/24 04:27:43;;;;;;;5.85;2.55;;;10.30;99.90;;;;;;5049480;28;20501;-69
2023/12/24 04:30:09;;;;;;;5.40;2.85;;;10.40;99.90;;;;;;5049535;28;20072;-70
2023/12/24 04:32:35;;;;;;;6.60;3.22;;;10.30;99.90;;;;;;5049100;28;20479;-69
2023/12/24 04:35:01;;;;;;;5.65;2.85;;;10.40;99.90;;;;;;5049445;28;20108;-70
2023/12/24 04:37:26;;;;;;;6.78;3.00;;;10.40;99.90;;;;;;5044590;28;20464;-70
2023/12/24 04:39:52;;;;;;;5.10;3.17;;;10.40;99.90;;;;;;5048904;28;20052;-70
2023/12/24 04:42:18;;;;;;;4.25;2.85;;;10.50;99.90;;;;;;5047474;28;20029;-70
2023/12/24 04:44:43;;;;;;;5.05;2.83;;;10.40;99.90;;;;;;5049358;28;20354;-70
2023/12/24 04:47:09;;;;;;;4.45;3.05;;;10.50;99.90;;;;;;5048804;28;20032;-70
2023/12/24 04:49:35;;;;;;;5.75;3.03;;;10.40;99.90;;;;;;5049352;28;20608;-69
2023/12/24 04:52:01;;;;;;;4.72;2.90;;;10.50;99.90;;;;;;5048514;28;20393;-70
2023/12/24 04:54:27;;;;;;;3.47;2.30;;;10.50;99.90;;;;;;5048938;28;20025;-70
2023/12/24 04:56:52;;;;;;;5.60;2.70;;;10.50;99.90;;;;;;5048467;28;20166;-70
2023/12/24 04:59:18;;;;;;;5.65;2.60;;;10.50;99.90;;;;;;5049102;28;20104;-70
2023/12/24 05:01:44;;;;;;;3.90;2.42;;;10.50;99.90;;;;;;5048934;28;20028;-70
2023/12/24 05:04:09;;;;;;;3.70;2.50;;;10.50;99.90;;;;;;5049046;28;20897;-69
2023/12/24 05:06:35;;;;;;;4.22;2.60;;;10.60;99.90;;;;;;5048857;28;20036;-70
2023/12/24 05:09:01;;;;;;;3.70;2.40;;;10.60;99.90;;;;;;5048586;28;20059;-70
2023/12/24 05:11:27;;;;;;;4.07;2.35;;;10.60;99.90;;;;;;5048462;28;20076;-69
2023/12/24 05:13:52;;;;;;;3.85;2.25;;;10.60;99.90;;;;;;5047714;28;20017;-69
2023/12/24 05:16:18;;;;;;;4.35;2.00;;;10.60;99.90;;;;;;5048220;28;20474;-69
2023/12/24 05:18:45;;;;;;;3.47;1.90;;;10.60;99.90;;;;;;5048789;28;20024;-70
2023/12/24 05:21:11;;;;;;;3.95;1.90;;;10.60;99.90;;;;;;5048377;28;20024;-70
2023/12/24 05:23:37;;;;;;;2.70;1.83;;;10.60;99.90;;;;;;5046865;28;20025;-69
2023/12/24 05:26:02;;;;;;;3.80;2.05;;;10.70;99.90;;;;;;5048399;28;20620;-69
2023/12/24 05:28:28;;;;;;;2.38;1.65;;;10.70;99.90;;;;;;5048161;28;20017;-70
2023/12/24 05:30:54;;;;;;;2.85;1.65;;;10.70;99.90;;;;;;5048101;28;20537;-70
2023/12/24 05:33:19;;;;;;;4.40;1.75;;;10.70;99.90;;;;;;5047950;28;20013;-70
2023/12/24 05:35:45;;;;;;;4.60;2.00;;;10.70;99.90;;;;;;5036581;28;20033;-69
2023/12/24 05:38:10;;;;;;;2.35;1.70;;;10.70;99.90;;;;;;5047786;28;20021;-70
2023/12/24 05:40:36;;;;;;;3.95;2.08;;;10.70;99.90;;;;;;5041441;28;20517;-70
2023/12/24 05:43:02;;;;;;;3.75;1.98;;;10.80;99.90;;;;;;5047373;28;20497;-70
2023/12/24 05:45:28;;;;;;;3.35;1.83;;;10.80;99.90;;;;;;5048339;28;20111;-70
2023/12/24 05:47:54;;;;;;;5.00;2.10;;;10.80;99.90;;;;;;5047683;28;20175;-72
2023/12/24 05:50:20;;;;;;;2.78;1.70;;;10.80;99.90;;;;;;5047926;28;20120;-70
2023/12/24 05:52:46;;;;;;;4.22;2.58;;;10.80;99.90;;;;;;5029599;28;20064;-69
2023/12/24 05:55:12;;;;;;;3.85;2.10;;;10.80;99.90;;;;;;5047904;28;20556;-70
2023/12/24 05:57:37;;;;;;;4.60;2.30;;;10.90;99.90;;;;;;5047318;28;20538;-70
2023/12/24 06:00:05;;;;;;;4.03;2.25;;;10.90;99.90;;;;;;5047716;28;20163;-70
2023/12/24 06:02:30;;;;;;;6.95;2.30;;;10.90;99.90;;;;;;5045910;28;20116;-70
2023/12/24 06:04:56;;;;;;;5.93;3.03;;;10.90;99.90;;;;;;5047883;28;20715;-70
2023/12/24 06:07:22;;;;;;;8.07;3.10;;;10.90;99.90;;;;;;5047532;28;20606;-70
2023/12/24 06:09:47;;;;;;;6.80;2.67;;;11.00;99.90;;;;;;5032570;28;20029;-70
2023/12/24 06:12:13;;;;;;;7.13;3.08;;;10.90;99.90;;;;;;5046984;28;20482;-70
2023/12/24 06:14:39;;;;;;;6.78;3.00;;;11.00;99.90;;;;;;5047600;28;20021;-70
2023/12/24 06:17:05;;;;;;;7.45;3.10;;;11.00;99.90;;;;;;5047060;28;20036;-70
2023/12/24 06:19:30;;;;;;;8.93;3.20;;;11.00;99.90;;;;;;5047571;28;20021;-70
2023/12/24 06:22:00;;;;;;;6.10;2.70;;;11.00;99.90;;;;;;5047233;28;20025;-70
2023/12/24 06:24:26;;;;;;;5.65;2.50;;;11.00;99.90;;;;;;5047571;28;20098;-70
2023/12/24 06:26:51;;;;;;;6.65;2.83;;;11.10;99.90;;;;;;5047067;28;20488;-70
2023/12/24 06:29:18;;;;;;;9.32;2.88;;;11.10;99.90;;;;;;5047555;28;20048;-70
2023/12/24 06:31:43;;;;;;;7.25;3.00;;;11.10;99.90;;;;;;5046350;28;20111;-70
2023/12/24 06:34:12;;;;;;;7.25;2.90;;;11.10;99.90;;;;;;5047124;28;20100;-70
2023/12/24 06:36:38;;;;;;;8.88;3.40;;;11.20;99.90;;;;;;5046743;28;20025;-70
2023/12/24 06:39:04;;;;;;;9.50;3.13;;;11.10;99.90;;;;;;5046493;28;20040;-70
2023/12/24 06:41:30;;;;;;;10.60;3.30;;;11.20;99.90;;;;;;5046920;28;20029;-70
2023/12/24 06:43:55;;;;;;;5.72;3.05;;;11.20;99.90;;;;;;5046868;28;20066;-70
2023/12/24 06:46:21;;;;;;;7.53;3.30;;;11.20;99.90;;;;;;5047297;28;20100;-70
2023/12/24 06:48:47;;;;;;;7.63;2.88;;;11.20;99.90;;;;;;5028528;28;20029;-70
2023/12/24 06:51:12;;;;;;;9.23;3.30;;;11.20;99.90;;;;;;5046857;28;20025;-70
2023/12/24 06:53:38;;;;;;;10.32;3.25;;;11.20;99.90;;;;;;5046560;28;20028;-70
2023/12/24 06:56:04;;;;;;;9.10;2.90;;;11.20;99.90;;;;;;5042721;28;20025;-70
2023/12/24 06:58:30;;;;;;;8.70;3.00;;;11.20;99.90;;;;;;5046618;28;20024;-70
2023/12/24 07:00:55;;;;;;;7.65;2.85;;;11.20;99.90;;;;;;5046940;28;20048;-70
2023/12/24 07:03:21;;;;;;;8.38;3.15;;;11.30;99.90;;;;;;5046331;28;20521;-70
2023/12/24 07:05:46;;;;;;;5.28;2.72;;;11.20;99.90;;;;;;5047114;28;20028;-70
2023/12/24 07:08:12;;;;;;;9.55;2.95;;;11.20;99.90;;;;;;5044616;28;20034;-70
2023/12/24 07:10:38;;;;;;;8.85;3.03;;;11.30;99.90;;;;;;5041096;28;20029;-70
2023/12/24 07:13:04;;;;;;;6.20;2.75;;;11.30;99.90;;;;;;5031046;28;20028;-70
2023/12/24 07:15:38;;;;;;;8.57;2.78;;;11.30;99.90;;;;;;5027511;28;20536;-70
2023/12/24 07:18:04;;;;;;;7.32;2.90;;;11.30;99.90;;;;;;5044927;28;20058;-70
2023/12/24 07:20:30;;;;;;;10.82;3.10;;;11.30;99.90;;;;;;5045509;28;20025;-70
2023/12/24 07:22:55;;;;;;;7.78;3.10;;;11.30;99.90;;;;;;5045276;28;20644;-70
2023/12/24 07:25:21;;;;;;;7.28;3.42;;;11.30;99.90;;;;;;5034512;28;20056;-70
2023/12/24 07:27:47;;;;;;;7.78;3.25;;;11.30;99.90;;;;;;5046227;28;20049;-70
2023/12/24 07:30:13;;;;;;;11.55;3.50;;;11.30;99.90;;;;;;5046586;28;20036;-70
2023/12/24 07:32:46;;;;;;;6.78;3.50;;;11.30;99.90;;;;;;5045945;28;20494;-70
2023/12/24 07:35:12;;;;;;;9.95;3.97;;;11.30;99.90;;;;;;5045666;28;20111;-70
2023/12/24 07:37:38;;;;;;;8.45;3.15;;;11.30;99.90;;;;;;5047042;28;20450;-70
2023/12/24 07:40:08;;;;;;;14.20;3.78;;;11.30;99.90;;;;;;5049178;28;20083;-70
2023/12/24 07:42:35;;;;;;;7.78;3.67;;;11.30;99.90;;;;;;5038392;28;20021;-70
2023/12/24 07:45:01;;;;;;;12.73;4.13;;;11.40;99.90;;;;;;5050288;28;20461;-69
2023/12/24 07:47:26;;;;;;;11.30;4.18;;;11.40;99.90;;;;;;5049980;28;20100;-68
2023/12/24 07:49:52;;;;;;;10.10;4.22;;;11.30;99.90;;;;;;5040297;28;20495;-68
2023/12/24 07:52:17;;;;;;;12.85;4.28;;;11.40;99.90;;;;;;5045670;28;20398;-69
2023/12/24 07:54:43;;;;;;;10.65;4.00;;;11.40;99.90;;;;;;5040935;28;20028;-71
2023/12/24 07:57:09;;;;;;;13.27;4.53;;;11.40;99.90;;;;;;5041883;28;20017;-71
2023/12/24 07:59:34;;;;;;;9.60;4.55;;;11.40;99.90;;;;;;5049944;28;20097;-71
2023/12/24 08:02:00;;;;;;;11.73;4.35;;;11.40;99.90;;;;;;5049578;28;20032;-71
2023/12/24 08:04:26;;;;;;;7.85;4.30;;;11.40;99.90;;;;;;5049772;28;20074;-71
2023/12/24 08:06:52;;;;;;;10.77;5.00;;;11.40;99.90;;;;;;5049025;28;20024;-71
2023/12/24 08:09:18;;;;;;;11.48;5.35;;;11.40;99.90;;;;;;5049700;28;20056;-71
2023/12/24 08:11:43;;;;;;;10.85;4.82;;;11.50;99.90;;;;;;5049827;28;20060;-71
2023/12/24 08:14:09;;;;;;;8.10;3.83;;;11.40;99.90;;;;;;5049175;28;20021;-71
2023/12/24 08:16:35;;;;;;;9.20;3.78;;;11.40;99.90;;;;;;5049502;28;20021;-71
2023/12/24 08:19:02;;;;;;;13.35;3.95;;;11.40;99.90;;;;;;5043188;28;20075;-70
2023/12/24 08:21:28;;;;;;;8.82;3.95;;;11.50;99.90;;;;;;5043698;28;20033;-71
2023/12/24 08:23:53;;;;;;;7.47;3.70;;;11.50;99.90;;;;;;5022060;28;20033;-71
2023/12/24 08:26:19;;;;;;;6.25;3.20;;;11.50;99.90;;;;;;5049118;28;20025;-71
2023/12/24 08:28:45;;;;;;;7.47;2.83;;;11.50;99.90;;;;;;5047837;28;20025;-71
2023/12/24 08:31:10;;;;;;;8.43;2.53;;;11.50;99.90;;;;;;5047229;28;20778;-71
2023/12/24 08:33:37;;;;;;;6.07;2.80;;;11.50;99.90;;;;;;5032872;28;20082;-71
2023/12/24 08:36:03;;;;;;;5.88;3.03;;;11.50;99.90;;;;;;5029828;28;20018;-71
2023/12/24 08:38:29;;;;;;;6.43;2.90;;;11.50;99.90;;;;;;5042169;28;20033;-71
2023/12/24 08:40:56;;;;;;;4.85;2.53;;;11.50;99.90;;;;;;5043873;28;20049;-71
2023/12/24 08:43:22;;;;;;;5.30;2.65;;;11.60;99.90;;;;;;5036735;28;20037;-70
2023/12/24 08:45:48;;;;;;;4.55;2.00;;;11.60;99.90;;;;;;5048427;28;20078;-71
2023/12/24 08:48:13;;;;;;;4.47;2.22;;;11.50;99.90;;;;;;5037100;28;20091;-71
2023/12/24 08:50:39;;;;;;;4.00;1.73;;;11.50;99.90;;;;;;5029023;28;20025;-71
2023/12/24 08:53:05;;;;;;;3.35;1.70;;;11.60;99.90;;;;;;5038680;28;20478;-71
2023/12/24 08:55:30;;;;;;;3.17;1.80;;;11.60;99.90;;;;;;5020949;28;20045;-71
2023/12/24 08:57:58;;;;;;;3.28;1.70;;;11.60;99.90;;;;;;5035858;28;20029;-71
2023/12/24 09:00:24;;;;;;;3.00;1.80;;;11.60;99.90;;;;;;5032972;28;20024;-71
2023/12/24 09:02:49;;;;;;;4.32;1.50;;;11.60;99.90;;;;;;5034952;28;20100;-73
2023/12/24 09:05:18;;;;;;;2.55;1.45;;;11.60;99.90;;;;;;5030322;28;20772;-68
2023/12/24 09:07:44;;;;;;;1.88;1.48;;;11.60;99.90;;;;;;5044890;28;20414;-68
2023/12/24 09:10:10;;;;;;;3.25;1.40;;;11.60;99.90;;;;;;5030525;28;20195;-68
2023/12/24 09:12:35;;;;;;;3.42;1.65;;;11.70;99.90;;;;;;5039206;28;20578;-69
2023/12/24 09:15:01;;;;;;;3.75;1.58;;;11.70;99.90;;;;;;5038475;28;20029;-70
2023/12/24 09:17:27;;;;;;;3.83;1.60;;;11.70;99.90;;;;;;5043362;28;20631;-70
2023/12/24 09:19:53;;;;;;;4.20;1.73;;;11.70;99.90;;;;;;5047331;28;20486;-71
2023/12/24 09:22:18;;;;;;;5.40;1.92;;;11.70;99.90;;;;;;5046488;28;20025;-70
2023/12/24 09:24:44;;;;;;;5.18;1.73;;;11.70;99.90;;;;;;5039972;28;20049;-70
2023/12/24 09:27:10;;;;;;;4.82;1.80;;;11.70;99.90;;;;;;5039336;28;20061;-70
2023/12/24 09:29:35;;;;;;;4.13;1.80;;;11.70;99.90;;;;;;5032897;28;20644;-70
2023/12/24 09:32:01;;;;;;;4.70;1.90;;;11.80;99.90;;;;;;5039883;28;20032;-70
2023/12/24 09:34:26;;;;;;;5.00;2.00;;;11.80;99.90;;;;;;5023016;28;20491;-70
2023/12/24 09:36:52;;;;;;;5.95;2.05;;;11.80;99.90;;;;;;5033756;28;20029;-70
2023/12/24 09:39:18;;;;;;;5.18;2.08;;;11.80;99.90;;;;;;5020757;28;20403;-70
2023/12/24 09:41:43;;;;;;;6.60;2.40;;;11.80;99.90;;;;;;5029836;28;20017;-70
2023/12/24 09:44:09;;;;;;;8.98;2.70;;;11.80;99.90;;;;;;5029740;28;20060;-71
2023/12/24 09:46:35;;;;;;;6.60;2.58;;;11.80;99.90;;;;;;5031776;28;20025;-71
2023/12/24 09:49:00;;;;;;;7.65;2.90;;;11.80;99.90;;;;;;5036987;28;20064;-71
2023/12/24 09:51:26;;;;;;;7.40;2.95;;;11.80;99.90;;;;;;5027929;28;20144;-71
2023/12/24 09:53:54;;;;;;;10.30;3.03;;;11.80;99.90;;;;;;5043089;28;20020;-71
2023/12/24 09:56:20;;;;;;;10.70;3.30;;;11.90;99.90;;;;;;5046762;28;20521;-72
2023/12/24 09:58:46;;;;;;;13.82;3.65;;;11.90;99.90;;;;;;5047727;28;20013;-71
2023/12/24 10:01:13;;;;;;;10.90;3.55;;;11.90;99.90;;;;;;5047190;28;20021;-70
2023/12/24 10:03:38;;;;;;;12.48;4.25;;;11.90;99.90;;;;;;5043634;28;20064;-71
2023/12/24 10:06:05;;;;;;;14.82;4.57;;;11.90;99.90;;;;;;5044611;28;20059;-71
2023/12/24 10:08:31;;;;;;;18.65;4.45;;;11.90;99.90;;;;;;5047090;28;20037;-71
2023/12/24 10:11:11;;;;;;;22.02;4.68;;;11.90;99.90;;;;;;5047612;28;20083;-71
2023/12/24 10:13:36;;;;;;;20.42;5.18;;;11.90;99.90;;;;;;5047519;28;20017;-71
2023/12/24 10:16:05;;;;;;;28.52;6.25;;;12.00;99.90;;;;;;5047426;28;20021;-71
2023/12/24 10:18:32;;;;;;;18.95;5.10;;;12.00;99.90;;;;;;5047239;28;20024;-71
2023/12/24 10:21:10;;;;;;;30.98;6.05;;;12.00;99.90;;;;;;5047687;28;20031;-71
2023/12/24 10:23:37;;;;;;;29.70;6.32;;;12.00;99.90;;;;;;5034910;28;20032;-71
2023/12/24 10:26:04;;;;;;;32.97;6.80;;;12.00;99.90;;;;;;5047841;28;20029;-71
2023/12/24 10:28:32;;;;;;;33.55;6.75;;;12.10;99.90;;;;;;5037823;28;20536;-71
2023/12/24 10:31:08;;;;;;;33.28;7.35;;;12.10;99.90;;;;;;5048231;28;20033;-71
2023/12/24 10:33:38;;;;;;;27.52;6.13;;;12.10;99.90;;;;;;5042472;28;20025;-71
2023/12/24 10:36:04;;;;;;;30.73;6.82;;;12.20;99.90;;;;;;5046529;28;20064;-71
2023/12/24 10:38:30;;;;;;;39.95;7.38;;;12.20;99.90;;;;;;5044184;28;20703;-71
2023/12/24 10:40:56;;;;;;;36.40;6.43;;;12.20;99.90;;;;;;5047951;28;20067;-71
2023/12/24 10:43:22;;;;;;;35.65;6.47;;;12.20;99.90;;;;;;5051622;28;20485;-71
2023/12/24 10:45:48;;;;;;;32.65;6.50;;;12.20;99.90;;;;;;5045114;28;20028;-71
2023/12/24 10:48:14;;;;;;;40.17;6.63;;;12.30;99.90;;;;;;5039418;28;20040;-71
2023/12/24 10:50:39;;;;;;;29.52;6.22;;;12.30;99.90;;;;;;5032150;28;20030;-71
2023/12/24 10:53:07;;;;;;;35.00;6.32;;;12.30;99.90;;;;;;5045195;28;20044;-71
2023/12/24 10:55:35;;;;;;;28.20;6.28;;;12.30;99.90;;;;;;5037831;28;20391;-71
2023/12/24 10:58:29;;;;;;;34.67;7.15;;;12.30;99.90;;;;;;5046608;28;20028;-71
2023/12/24 11:01:07;;;;;;;35.22;6.38;;;12.30;99.90;;;;;;5040392;28;20068;-70
2023/12/24 11:03:49;;;;;;;33.58;5.38;;;12.40;99.90;;;;;;5046525;28;20044;-71
2023/12/24 11:06:36;;;;;;;25.05;6.15;;;12.40;99.90;;;;;;5043005;28;20552;-71
2023/12/24 11:09:10;;;;;;;20.27;5.05;;;12.40;99.90;;;;;;5046601;28;20031;-70
2023/12/24 11:11:52;;;;;;;30.52;6.28;;;12.40;99.90;;;;;;5043387;28;20040;-70
2023/12/24 11:14:41;;;;;;;29.17;6.53;;;12.40;99.90;;;;;;5024966;28;20449;-71
2023/12/24 11:17:08;;;;;;;30.10;6.05;;;12.40;99.90;;;;;;5041805;28;20017;-71
2023/12/24 11:19:41;;;;;;;28.23;5.90;;;12.40;99.90;;;;;;5020347;28;20032;-71
2023/12/24 11:22:09;;;;;;;22.15;5.90;;;12.40;99.90;;;;;;5031802;28;20045;-70
2023/12/24 11:24:41;;;;;;;24.75;6.50;;;12.50;99.90;;;;;;5036093;28;20031;-70
2023/12/24 11:27:11;;;;;;;26.60;7.05;;;12.40;99.90;;;;;;5043797;28;20036;-71
2023/12/24 11:29:53;;;;;;;27.45;6.78;;;12.50;99.90;;;;;;5023526;28;20021;-70
2023/12/24 11:32:33;;;;;;;29.60;7.50;;;12.50;99.90;;;;;;5044238;28;20112;-70
2023/12/24 11:34:59;;;;;;;21.92;6.75;;;12.50;99.90;;;;;;5033075;28;20027;-71
2023/12/24 11:37:35;;;;;;;28.13;7.22;;;12.50;99.90;;;;;;5033517;28;20013;-71
2023/12/24 11:40:08;;;;;;;25.20;8.10;;;12.50;99.90;;;;;;5036589;28;20095;-70
2023/12/24 11:42:50;;;;;;;26.67;7.90;;;12.50;99.90;;;;;;5045825;28;20028;-70
2023/12/24 11:45:23;;;;;;;19.92;7.68;;;12.50;99.90;;;;;;5045827;28;20025;-69
2023/12/24 11:47:51;;;;;;;20.08;7.72;;;12.50;99.90;;;;;;5030578;28;20505;-70
2023/12/24 11:50:17;;;;;;;18.52;8.00;;;12.50;99.90;;;;;;5021446;28;20035;-70
2023/12/24 11:52:44;;;;;;;19.30;7.68;;;12.50;99.90;;;;;;5026949;28;20022;-70
2023/12/24 11:55:13;;;;;;;19.48;7.93;;;12.50;99.90;;;;;;5037112;28;20028;-70
2023/12/24 11:57:39;;;;;;;22.70;8.43;;;12.50;99.90;;;;;;5034109;28;20032;-70
2023/12/24 12:00:11;;;;;;;16.13;7.93;;;12.50;99.90;;;;;;5028297;28;20033;-70
2023/12/24 12:02:37;;;;;;;17.25;7.53;;;12.50;99.90;;;;;;5026044;28;20049;-70
2023/12/24 12:05:03;;;;;;;16.90;6.85;;;12.60;99.90;;;;;;5025913;28;20478;-70
2023/12/24 12:07:29;;;;;;;20.10;7.10;;;12.60;99.90;;;;;;5014284;28;20494;-70
2023/12/24 12:09:54;;;;;;;15.85;6.80;;;12.60;99.90;;;;;;5034387;28;20502;-70
2023/12/24 12:12:20;;;;;;;14.55;5.47;;;12.60;99.90;;;;;;5045967;28;20051;-70
2023/12/24 12:14:46;;;;;;;13.88;5.72;;;12.60;99.90;;;;;;5016595;28;20059;-70
2023/12/24 12:17:11;;;;;;;12.50;4.88;;;12.60;99.90;;;;;;5029900;28;20021;-70
2023/12/24 12:19:39;;;;;;;10.32;4.10;;;12.60;99.90;;;;;;5041768;28;20674;-70
2023/12/24 12:22:05;;;;;;;10.20;4.13;;;12.60;99.90;;;;;;5045665;28;20051;-70
2023/12/24 12:24:31;;;;;;;10.48;3.70;;;12.60;99.90;;;;;;5028684;28;20493;-70
2023/12/24 12:26:57;;;;;;;10.55;3.58;;;12.60;99.90;;;;;;5049530;28;20059;-70
2023/12/24 12:29:23;;;;;;;11.10;3.97;;;12.60;99.90;;;;;;5049136;28;20041;-70
2023/12/24 12:31:55;;;;;;;10.35;3.85;;;12.60;99.90;;;;;;5049117;28;20071;-70
2023/12/24 12:34:21;;;;;;;8.82;4.40;;;12.60;99.90;;;;;;5048788;28;20482;-70
2023/12/24 12:36:46;;;;;;;9.38;4.13;;;12.60;99.90;;;;;;5048207;28;20020;-70
2023/12/24 12:39:12;;;;;;;9.43;4.40;;;12.60;99.90;;;;;;5030679;28;20041;-70
2023/12/24 12:41:37;;;;;;;8.25;4.00;;;12.60;99.90;;;;;;5027928;28;20025;-70